Time;durP1;ratioP1;P1;durP2;ratioP2;P2;SDS_P1;SDS_P2;PMS_P1;PMS_P2;Temp;Humidity;BMP_temperature;BMP_pressure;BME280_temperature;BME280_humidity;BME280_pressure;Samples;Min_cycle;Max_cycle;Signal;HPM_P1;HPM_P2
2023/06/12 00:00:45;;;;;;;;;;;11.50;99.90;;;;;;5013961;28;19913;-63
2023/06/12 00:03:13;;;;;;;;;;;11.70;99.90;;;;;;5013796;28;19909;-63
2023/06/12 00:05:41;;;;;;;;;;;11.80;99.90;;;;;;5014018;28;19916;-64
2023/06/12 00:08:08;;;;;;;;;;;11.90;99.90;;;;;;5013805;28;19916;-63
2023/06/12 00:10:35;;;;;;;;;;;12.00;99.90;;;;;;5013534;28;19910;-65
2023/06/12 00:13:02;;;;;;;;;;;12.00;99.90;;;;;;5013871;28;19951;-64
2023/06/12 00:15:29;;;;;;;;;;;12.30;99.90;;;;;;5014012;28;19909;-63
2023/06/12 00:17:55;;;;;;;;;;;12.30;99.90;;;;;;5013914;28;19909;-65
2023/06/12 00:20:22;;;;;;;;;;;12.40;99.90;;;;;;5013633;28;20226;-64
2023/06/12 00:22:50;;;;;;;;;;;12.50;99.90;;;;;;5013544;28;19913;-65
2023/06/12 00:25:17;;;;;;;;;;;12.60;99.90;;;;;;5013440;28;20397;-64
2023/06/12 00:27:43;;;;;;;;;;;12.60;99.90;;;;;;5013504;28;20302;-63
2023/06/12 00:30:10;;;;;;;;;;;12.70;99.90;;;;;;5013559;28;19921;-64
2023/06/12 00:32:37;;;;;;;;;;;12.70;99.90;;;;;;5013230;28;19927;-63
2023/06/12 00:35:04;;;;;;;;;;;12.80;99.90;;;;;;5013354;28;19917;-63
2023/06/12 00:37:31;;;;;;;;;;;12.90;99.90;;;;;;5013617;28;20007;-63
2023/06/12 00:39:57;;;;;;;;;;;13.00;99.90;;;;;;5013353;28;19921;-64
2023/06/12 00:42:30;;;;;;;;;;;13.00;99.90;;;;;;5013152;28;19909;-63
2023/06/12 00:44:58;;;;;;;;;;;13.00;99.90;;;;;;5013278;28;20331;-65
2023/06/12 00:47:25;;;;;;;;;;;13.00;99.90;;;;;;5012559;28;20274;-65
2023/06/12 00:49:52;;;;;;;;;;;13.30;99.90;;;;;;5013673;28;19976;-63
2023/06/12 00:52:21;;;;;;;;;;;13.40;99.90;;;;;;5012964;28;19917;-64
2023/06/12 00:54:50;;;;;;;;;;;13.40;99.90;;;;;;5013261;28;19909;-63
2023/06/12 00:57:17;;;;;;;;;;;13.50;99.90;;;;;;5013062;28;19932;-64
2023/06/12 00:59:44;;;;;;;;;;;13.60;99.90;;;;;;5013248;28;20259;-64
2023/06/12 01:02:13;;;;;;;;;;;13.60;99.90;;;;;;5013280;28;19910;-64
2023/06/12 01:04:42;;;;;;;;;;;13.80;99.90;;;;;;5012860;28;19987;-64
2023/06/12 01:07:10;;;;;;;;;;;14.00;99.90;;;;;;5012781;28;19948;-65
2023/06/12 01:09:40;;;;;;;;;;;14.00;99.90;;;;;;5012944;28;20282;-66
2023/06/12 01:12:07;;;;;;;;;;;14.20;99.90;;;;;;5012866;28;19909;-66
2023/06/12 01:14:34;;;;;;;;;;;14.30;99.90;;;;;;5012907;28;20382;-67
2023/06/12 01:17:02;;;;;;;;;;;14.50;99.90;;;;;;5012981;28;19909;-63
2023/06/12 01:19:28;;;;;;;;;;;14.40;99.90;;;;;;5013002;28;19921;-64
2023/06/12 01:21:59;;;;;;;;;;;14.50;99.90;;;;;;5012840;28;19909;-66
2023/06/12 01:24:38;;;;;;;;;;;14.60;99.90;;;;;;5012642;28;19917;-64
2023/06/12 01:27:06;;;;;;;;;;;14.50;99.90;;;;;;5012771;28;20274;-63
2023/06/12 01:29:41;;;;;;;;;;;14.70;99.90;;;;;;5012831;28;19916;-64
2023/06/12 01:32:08;;;;;;;;;;;15.00;99.90;;;;;;5012794;28;19949;-63
2023/06/12 01:34:35;;;;;;;;;;;15.20;99.90;;;;;;5012965;28;19910;-66
2023/06/12 01:37:13;;;;;;;;;;;15.60;99.90;;;;;;5012682;28;19917;-65
2023/06/12 01:39:41;;;;;;;;;;;15.70;99.90;;;;;;5012547;28;19917;-64
2023/06/12 01:42:08;;;;;;;;;;;15.70;99.90;;;;;;5012518;28;20424;-65
2023/06/12 01:44:36;;;;;;;;;;;15.70;99.90;;;;;;5012898;28;20040;-66
2023/06/12 01:47:03;;;;;;;;;;;15.70;99.90;;;;;;5012839;28;19917;-66
2023/06/12 01:49:30;;;;;;;;;;;15.80;99.90;;;;;;5012611;28;19921;-66
2023/06/12 01:51:56;;;;;;;;;;;15.90;99.90;;;;;;5012495;28;19917;-66
2023/06/12 01:54:24;;;;;;;;;;;16.10;99.90;;;;;;5012590;28;19910;-63
2023/06/12 01:56:51;;;;;;;;;;;16.20;99.90;;;;;;5011121;28;19952;-64
2023/06/12 01:59:18;;;;;;;;;;;16.30;99.90;;;;;;5015560;28;20001;-64
2023/06/12 02:01:45;;;;;;;;;;;16.40;99.90;;;;;;5015906;28;19909;-66
2023/06/12 02:04:12;;;;;;;;;;;16.50;99.90;;;;;;5016043;28;19924;-67
2023/06/12 02:06:39;;;;;;;;;;;16.60;99.90;;;;;;5015766;28;20347;-67
2023/06/12 02:09:05;;;;;;;;;;;16.60;99.90;;;;;;5015969;28;20343;-66
2023/06/12 02:11:32;;;;;;;;;;;16.60;99.90;;;;;;5014656;28;20374;-64
2023/06/12 02:13:59;;;;;;;;;;;16.70;99.90;;;;;;5016212;28;19968;-64
2023/06/12 02:16:27;;;;;;;;;;;16.70;99.90;;;;;;5016034;28;19910;-65
2023/06/12 02:18:54;;;;;;;;;;;16.80;99.90;;;;;;5016048;28;19913;-64
2023/06/12 02:21:21;;;;;;;;;;;16.90;99.90;;;;;;5015838;28;20000;-63
2023/06/12 02:23:48;;;;;;;;;;;17.00;99.90;;;;;;5015537;28;20329;-66
2023/06/12 02:26:16;;;;;;;;;;;17.00;99.90;;;;;;5015748;28;19913;-64
2023/06/12 02:28:43;;;;;;;;;;;17.00;99.90;;;;;;4998093;28;19936;-64
2023/06/12 02:31:10;;;;;;;;;;;17.10;99.90;;;;;;5015696;28;19909;-65
2023/06/12 02:33:37;;;;;;;;;;;17.30;99.90;;;;;;5015731;28;20015;-64
2023/06/12 02:36:07;;;;;;;;;;;17.40;99.90;;;;;;5015371;28;19910;-66
2023/06/12 02:38:35;;;;;;;;;;;17.50;99.90;;;;;;5015155;28;19910;-64
2023/06/12 02:41:01;;;;;;;;;;;17.60;99.90;;;;;;5015277;28;20355;-67
2023/06/12 02:43:28;;;;;;;;;;;17.60;99.90;;;;;;5015260;28;20004;-64
2023/06/12 02:45:55;;;;;;;;;;;17.60;99.90;;;;;;5015529;28;19909;-65
2023/06/12 02:48:21;;;;;;;;;;;17.50;99.90;;;;;;5015126;28;19917;-64
2023/06/12 02:50:48;;;;;;;;;;;17.60;99.90;;;;;;5015271;28;19921;-64
2023/06/12 02:53:15;;;;;;;;;;;17.70;99.90;;;;;;5015143;28;20007;-67
2023/06/12 02:55:44;;;;;;;;;;;17.90;99.90;;;;;;5015076;28;20377;-65
2023/06/12 02:58:10;;;;;;;;;;;18.00;99.90;;;;;;5015168;28;19916;-64
2023/06/12 03:00:37;;;;;;;;;;;18.50;99.90;;;;;;5015178;28;19910;-64
2023/06/12 03:03:05;;;;;;;;;;;19.00;99.90;;;;;;4997127;28;19909;-65
2023/06/12 03:05:31;;;;;;;;;;;19.70;99.90;;;;;;5014812;28;19925;-67
2023/06/12 03:07:58;;;;;;;;;;;20.40;99.20;;;;;;5014963;28;19913;-65
2023/06/12 03:10:25;;;;;;;;;;;20.80;98.30;;;;;;5013908;28;20004;-67
2023/06/12 03:12:51;;;;;;;;;;;20.90;97.50;;;;;;5014942;28;20000;-65
2023/06/12 03:15:18;;;;;;;;;;;21.00;97.40;;;;;;5014643;28;19916;-64
2023/06/12 03:17:45;;;;;;;;;;;21.10;97.60;;;;;;5014627;28;19992;-64
2023/06/12 03:20:14;;;;;;;;;;;21.40;97.10;;;;;;5014701;28;19956;-64
2023/06/12 03:22:41;;;;;;;;;;;21.60;96.60;;;;;;5014777;28;19920;-66
2023/06/12 03:25:10;;;;;;;;;;;22.50;96.30;;;;;;5014722;28;19917;-67
2023/06/12 03:27:37;;;;;;;;;;;23.40;94.30;;;;;;5014640;28;19913;-66
2023/06/12 03:30:05;;;;;;;;;;;23.50;93.50;;;;;;5014594;28;19914;-65
2023/06/12 03:32:31;;;;;;;;;;;23.60;93.40;;;;;;5014482;28;19910;-64
2023/06/12 03:34:58;;;;;;;;;;;24.50;93.10;;;;;;5014326;28;19909;-64
2023/06/12 03:37:27;;;;;;;;;;;26.40;91.30;;;;;;5014419;28;20371;-65
2023/06/12 03:39:54;;;;;;;;;;;28.20;86.20;;;;;;5014415;28;19909;-66
2023/06/12 03:42:21;;;;;;;;;;;29.20;81.80;;;;;;5014339;28;20333;-66
2023/06/12 03:44:48;;;;;;;;;;;29.20;78.20;;;;;;5014168;28;20389;-64
2023/06/12 03:47:15;;;;;;;;;;;30.10;78.60;;;;;;5014088;28;19909;-66
2023/06/12 03:49:42;;;;;;;;;;;31.50;74.50;;;;;;5014252;28;20012;-67
2023/06/12 03:52:09;;;;;;;;;;;31.90;71.40;;;;;;5014078;28;19910;-68
2023/06/12 03:54:36;;;;;;;;;;;32.10;70.20;;;;;;5014055;28;19920;-68
2023/06/12 03:57:03;;;;;;;;;;;31.50;70.00;;;;;;5013871;28;19963;-67
2023/06/12 03:59:29;;;;;;;;;;;31.90;69.10;;;;;;5014187;28;19914;-67
2023/06/12 04:01:58;;;;;;;;;;;32.40;67.80;;;;;;5014113;28;19985;-67
2023/06/12 04:04:26;;;;;;;;;;;32.70;66.70;;;;;;5013703;28;19918;-65
2023/06/12 04:06:56;;;;;;;;;;;32.30;66.00;;;;;;5013720;28;19914;-65
2023/06/12 04:09:22;;;;;;;;;;;31.40;66.50;;;;;;5012581;28;20410;-64
2023/06/12 04:11:52;;;;;;;;;;;30.00;68.30;;;;;;5013798;28;19964;-64
2023/06/12 04:14:20;;;;;;;;;;;28.80;69.70;;;;;;5013735;28;20354;-63
2023/06/12 04:16:47;;;;;;;;;;;27.60;72.10;;;;;;5013845;28;19968;-65
2023/06/12 04:19:15;;;;;;;;;;;26.40;75.50;;;;;;5013875;28;19910;-66
2023/06/12 04:21:42;;;;;;;;;;;25.10;77.30;;;;;;5013394;28;19910;-67
2023/06/12 04:24:19;;;;;;;;;;;24.30;79.70;;;;;;5013675;28;20330;-63
2023/06/12 04:26:48;;;;;;;;;;;23.50;82.80;;;;;;4995656;28;19909;-61
2023/06/12 04:29:18;;;;;;;;;;;23.00;85.30;;;;;;5013511;28;20267;-61
2023/06/12 04:31:45;;;;;;;;;;;22.50;85.70;;;;;;5013427;28;19955;-64
2023/06/12 04:34:15;;;;;;;;;;;22.30;85.30;;;;;;5013236;28;19910;-63
2023/06/12 04:36:43;;;;;;;;;;;21.90;85.40;;;;;;5013439;28;19909;-63
2023/06/12 04:39:11;;;;;;;;;;;21.60;86.30;;;;;;5013337;28;19910;-64
2023/06/12 04:41:40;;;;;;;;;;;21.50;86.40;;;;;;5012774;28;19936;-62
2023/06/12 04:44:08;;;;;;;;;;;21.30;87.90;;;;;;5013091;28;19925;-63
2023/06/12 04:46:35;;;;;;;;;;;21.10;88.00;;;;;;5012966;28;19916;-62
2023/06/12 04:49:02;;;;;;;;;;;21.00;88.70;;;;;;4994915;28;20366;-64
2023/06/12 04:51:29;;;;;;;;;;;20.90;89.20;;;;;;5012907;28;19968;-63
2023/06/12 04:53:57;;;;;;;;;;;20.80;89.90;;;;;;5013093;28;19936;-64
2023/06/12 04:56:27;;;;;;;;;;;20.90;90.30;;;;;;5012995;28;19956;-64
2023/06/12 04:58:54;;;;;;;;;;;20.90;90.90;;;;;;5013112;28;19992;-63
2023/06/12 05:01:23;;;;;;;;;;;21.00;91.30;;;;;;5013542;28;20004;-62
2023/06/12 05:03:52;;;;;;;;;;;21.10;91.40;;;;;;5011170;28;19917;-63
2023/06/12 05:06:20;;;;;;;;;;;21.10;91.70;;;;;;5012524;28;19909;-63
2023/06/12 05:08:47;;;;;;;;;;;21.00;91.60;;;;;;5013126;28;19955;-62
2023/06/12 05:11:13;;;;;;;;;;;20.80;92.10;;;;;;5013090;28;19916;-62
2023/06/12 05:13:49;;;;;;;;;;;20.80;92.30;;;;;;5012835;28;20281;-63
2023/06/12 05:16:16;;;;;;;;;;;20.60;92.60;;;;;;4995287;28;19909;-64
2023/06/12 05:18:43;;;;;;;;;;;20.60;92.80;;;;;;5012758;28;19967;-63
2023/06/12 05:21:10;;;;;;;;;;;20.40;93.20;;;;;;5012857;28;19910;-61
2023/06/12 05:23:37;;;;;;;;;;;20.30;93.60;;;;;;4995123;28;19967;-64
2023/06/12 05:26:04;;;;;;;;;;;20.40;93.80;;;;;;5012630;28;19909;-64
2023/06/12 05:28:31;;;;;;;;;;;20.40;93.90;;;;;;5012627;28;19913;-64
2023/06/12 05:30:58;;;;;;;;;;;20.40;93.90;;;;;;5012618;28;20282;-63
2023/06/12 05:33:25;;;;;;;;;;;20.30;94.20;;;;;;5014099;28;20550;-63
2023/06/12 05:35:52;;;;;;;;;;;20.40;94.70;;;;;;5016553;28;20278;-63
2023/06/12 05:38:18;;;;;;;;;;;20.30;95.40;;;;;;5016770;28;19917;-63
2023/06/12 05:40:45;;;;;;;;;;;20.20;95.70;;;;;;5016810;28;19909;-64
2023/06/12 05:43:12;;;;;;;;;;;20.20;96.10;;;;;;4998599;28;19909;-62
2023/06/12 05:45:39;;;;;;;;;;;20.10;96.50;;;;;;5016412;28;20436;-63
2023/06/12 05:48:06;;;;;;;;;;;20.00;96.90;;;;;;5016064;28;20040;-63
2023/06/12 05:50:33;;;;;;;;;;;20.00;97.00;;;;;;5016711;28;20254;-65
2023/06/12 05:53:00;;;;;;;;;;;20.00;97.00;;;;;;5016380;28;20035;-63
2023/06/12 05:55:31;;;;;;;;;;;19.80;97.30;;;;;;5015399;28;20144;-62
2023/06/12 05:57:57;;;;;;;;;;;19.70;97.70;;;;;;5016160;28;19909;-63
2023/06/12 06:00:24;;;;;;;;;;;19.70;98.30;;;;;;5016213;28;19910;-65
2023/06/12 06:02:51;;;;;;;;;;;20.10;98.70;;;;;;5016282;28;19917;-63
2023/06/12 06:05:18;;;;;;;;;;;20.30;96.30;;;;;;5016151;28;20012;-62
2023/06/12 06:07:45;;;;;;;;;;;20.20;96.00;;;;;;5015697;28;20331;-63
2023/06/12 06:10:11;;;;;;;;;;;20.20;96.10;;;;;;5015197;28;19980;-64
2023/06/12 06:12:38;;;;;;;;;;;20.10;96.60;;;;;;5016240;28;20355;-63
2023/06/12 06:15:05;;;;;;;;;;;19.80;97.00;;;;;;5015955;28;19932;-63
2023/06/12 06:17:32;;;;;;;;;;;19.80;97.20;;;;;;5015819;28;19910;-62
2023/06/12 06:19:59;;;;;;;;;;;19.50;97.60;;;;;;5015818;28;19917;-62
2023/06/12 06:22:26;;;;;;;;;;;19.40;98.20;;;;;;5015646;28;19910;-64
2023/06/12 06:24:52;;;;;;;;;;;19.10;98.70;;;;;;5015717;28;19917;-63
2023/06/12 06:27:19;;;;;;;;;;;18.90;99.10;;;;;;5015647;28;19910;-62
2023/06/12 06:29:46;;;;;;;;;;;18.60;99.40;;;;;;5015759;28;19913;-61
2023/06/12 06:32:13;;;;;;;;;;;18.40;99.90;;;;;;5015625;28;19915;-62
2023/06/12 06:34:39;;;;;;;;;;;18.20;99.90;;;;;;5015633;28;19913;-61
2023/06/12 06:37:06;;;;;;;;;;;18.10;99.90;;;;;;5015229;28;19910;-63
2023/06/12 06:39:33;;;;;;;;;;;17.90;99.90;;;;;;5015315;28;19916;-63
2023/06/12 06:42:00;;;;;;;;;;;17.80;99.90;;;;;;5015333;28;20258;-61
2023/06/12 06:44:26;;;;;;;;;;;17.60;99.90;;;;;;5014168;28;19914;-62
2023/06/12 06:46:53;;;;;;;;;;;17.50;99.90;;;;;;5015680;28;19916;-63
2023/06/12 06:49:22;;;;;;;;;;;17.40;99.90;;;;;;5015602;28;19928;-63
2023/06/12 06:51:49;;;;;;;;;;;17.30;99.90;;;;;;5015179;28;19913;-62
2023/06/12 06:54:15;;;;;;;;;;;17.20;99.90;;;;;;5015260;28;19968;-64
2023/06/12 06:56:42;;;;;;;;;;;17.00;99.90;;;;;;5014831;28;19932;-66
2023/06/12 06:59:09;;;;;;;;;;;17.00;99.90;;;;;;5014854;28;19913;-62
2023/06/12 07:01:37;;;;;;;;;;;16.90;99.90;;;;;;5014888;28;19941;-66
2023/06/12 07:04:03;;;;;;;;;;;16.90;99.90;;;;;;5014754;28;19963;-62
2023/06/12 07:06:31;;;;;;;;;;;16.70;99.90;;;;;;5015099;28;19915;-65
2023/06/12 07:08:58;;;;;;;;;;;16.70;99.90;;;;;;5015052;28;19909;-66
2023/06/12 07:11:26;;;;;;;;;;;16.60;99.90;;;;;;5015151;28;19909;-65
2023/06/12 07:13:52;;;;;;;;;;;16.50;99.90;;;;;;5014659;28;19916;-67
2023/06/12 07:16:19;;;;;;;;;;;16.40;99.90;;;;;;5014656;28;19920;-62
2023/06/12 07:18:46;;;;;;;;;;;16.40;99.90;;;;;;5014537;28;19964;-62
2023/06/12 07:21:14;;;;;;;;;;;16.30;99.90;;;;;;5014513;28;19909;-62
2023/06/12 07:23:41;;;;;;;;;;;16.20;99.90;;;;;;5011948;28;19925;-62
2023/06/12 07:26:07;;;;;;;;;;;16.20;99.90;;;;;;5014146;28;20294;-64
2023/06/12 07:28:34;;;;;;;;;;;16.10;99.90;;;;;;5014383;28;19968;-63
2023/06/12 07:31:01;;;;;;;;;;;16.10;99.90;;;;;;5014370;28;19921;-63
2023/06/12 07:33:27;;;;;;;;;;;16.00;99.90;;;;;;5014614;28;20326;-62
2023/06/12 07:35:54;;;;;;;;;;;16.00;99.90;;;;;;5014242;28;20367;-62
2023/06/12 07:38:21;;;;;;;;;;;15.90;99.90;;;;;;5014017;28;19924;-62
2023/06/12 07:40:47;;;;;;;;;;;15.90;99.90;;;;;;5014298;28;19909;-63
2023/06/12 07:43:14;;;;;;;;;;;15.90;99.90;;;;;;5013621;28;19906;-63
2023/06/12 07:45:41;;;;;;;;;;;15.80;99.90;;;;;;5013973;28;19917;-63
2023/06/12 07:48:08;;;;;;;;;;;15.80;99.90;;;;;;5013766;28;20386;-64
2023/06/12 07:50:35;;;;;;;;;;;15.70;99.90;;;;;;5013953;28;19963;-62
2023/06/12 07:53:01;;;;;;;;;;;15.70;99.90;;;;;;5014068;28;19910;-64
2023/06/12 07:55:30;;;;;;;;;;;15.70;99.90;;;;;;5013437;28;19914;-63
2023/06/12 07:57:57;;;;;;;;;;;15.70;99.90;;;;;;5011391;28;19996;-63
2023/06/12 08:00:26;;;;;;;;;;;15.70;99.90;;;;;;5012602;28;20374;-63
2023/06/12 08:02:59;;;;;;;;;;;15.70;99.90;;;;;;4996135;28;20392;-64
2023/06/12 08:05:26;;;;;;;;;;;15.70;99.90;;;;;;4999951;28;19925;-63
2023/06/12 08:07:53;;;;;;;;;;;15.70;99.90;;;;;;5013788;28;19961;-63
2023/06/12 08:10:20;;;;;;;;;;;15.70;99.90;;;;;;5013650;28;19980;-63
2023/06/12 08:12:47;;;;;;;;;;;15.60;99.90;;;;;;5013418;28;19979;-63
2023/06/12 08:15:13;;;;;;;;;;;15.60;99.90;;;;;;5013452;28;20290;-63
2023/06/12 08:17:41;;;;;;;;;;;15.50;99.90;;;;;;5013669;28;19913;-64
2023/06/12 08:20:10;;;;;;;;;;;15.50;99.90;;;;;;5013525;28;19909;-63
2023/06/12 08:22:37;;;;;;;;;;;15.50;99.90;;;;;;5012834;28;19910;-62
2023/06/12 08:25:04;;;;;;;;;;;15.40;99.90;;;;;;4995793;28;20370;-62
2023/06/12 08:27:31;;;;;;;;;;;15.50;99.90;;;;;;5012957;28;19967;-65
2023/06/12 08:29:58;;;;;;;;;;;15.40;99.90;;;;;;4995229;28;19913;-66
2023/06/12 08:32:24;;;;;;;;;;;15.40;99.90;;;;;;5013222;28;19963;-64
2023/06/12 08:34:51;;;;;;;;;;;15.40;99.90;;;;;;5012959;28;20008;-68
2023/06/12 08:37:18;;;;;;;;;;;15.50;99.90;;;;;;5013163;28;19909;-68
2023/06/12 08:39:45;;;;;;;;;;;15.50;99.90;;;;;;5013021;28;19909;-66
2023/06/12 08:42:15;;;;;;;;;;;15.50;99.90;;;;;;5013023;28;19910;-66
2023/06/12 08:44:44;;;;;;;;;;;15.50;99.90;;;;;;5012914;28;19982;-66
2023/06/12 08:47:11;;;;;;;;;;;15.50;99.90;;;;;;5012702;28;20357;-67
2023/06/12 08:49:38;;;;;;;;;;;15.60;99.90;;;;;;5012154;28;20355;-66
2023/06/12 08:52:06;;;;;;;;;;;15.60;99.90;;;;;;5012711;28;19917;-66
2023/06/12 08:54:34;;;;;;;;;;;15.60;99.90;;;;;;5012721;28;19995;-67
2023/06/12 08:57:02;;;;;;;;;;;15.50;99.90;;;;;;5012558;28;19919;-65
2023/06/12 08:59:29;;;;;;;;;;;15.50;99.90;;;;;;5012674;28;19910;-66
2023/06/12 09:01:57;;;;;;;;;;;15.40;99.90;;;;;;5012383;28;20378;-67
2023/06/12 09:04:41;;;;;;;;;;;15.40;99.90;;;;;;5012364;28;19913;-65
2023/06/12 09:07:08;;;;;;;;;;;15.30;99.90;;;;;;5010813;28;19964;-67
2023/06/12 09:09:39;;;;;;;;;;;15.20;99.90;;;;;;5009450;28;20362;-68
2023/06/12 09:12:08;;;;;;;;;;;15.20;99.90;;;;;;5011496;28;19909;-66
2023/06/12 09:14:35;;;;;;;;;;;15.20;99.90;;;;;;5012755;28;19952;-67
2023/06/12 09:17:02;;;;;;;;;;;15.10;99.90;;;;;;5012226;28;19910;-66
2023/06/12 09:19:45;;;;;;;;;;;15.10;99.90;;;;;;5012144;28;20343;-65
2023/06/12 09:22:12;;;;;;;;;;;15.10;99.90;;;;;;5006365;28;19980;-66
2023/06/12 09:24:40;;;;;;;;;;;15.10;99.90;;;;;;5012464;28;19925;-67
2023/06/12 09:27:07;;;;;;;;;;;15.10;99.90;;;;;;5012309;28;19910;-67
2023/06/12 09:29:34;;;;;;;;;;;15.00;99.90;;;;;;5012718;28;20374;-68
2023/06/12 09:32:06;;;;;;;;;;;15.10;99.90;;;;;;5012291;28;19920;-67
2023/06/12 09:34:36;;;;;;;;;;;15.10;99.90;;;;;;5012721;28;20282;-66
2023/06/12 09:37:03;;;;;;;;;;;15.20;99.90;;;;;;5011839;28;19937;-65
2023/06/12 09:39:30;;;;;;;;;;;15.20;99.90;;;;;;5012375;28;19918;-67
2023/06/12 09:41:57;;;;;;;;;;;15.30;99.90;;;;;;5012336;28;19909;-65
2023/06/12 09:44:25;;;;;;;;;;;15.20;99.90;;;;;;5012147;28;19923;-66
2023/06/12 09:46:52;;;;;;;;;;;15.30;99.90;;;;;;5011905;28;19910;-67
2023/06/12 09:49:23;;;;;;;;;;;15.20;99.90;;;;;;5011247;28;20005;-66
2023/06/12 09:51:50;;;;;;;;;;;15.30;99.90;;;;;;5011965;28;19956;-67
2023/06/12 09:54:18;;;;;;;;;;;15.30;99.90;;;;;;5012286;28;19964;-67
2023/06/12 09:56:51;;;;;;;;;;;15.30;99.90;;;;;;5011768;28;19915;-66
2023/06/12 09:59:19;;;;;;;;;;;15.30;99.90;;;;;;5010335;28;20336;-69
2023/06/12 10:01:48;;;;;;;;;;;15.30;99.90;;;;;;5011801;28;19909;-68
2023/06/12 10:04:17;;;;;;;;;;;15.30;99.90;;;;;;5011794;28;20363;-68
2023/06/12 10:06:45;;;;;;;;;;;15.30;99.90;;;;;;5012048;28;19913;-68
2023/06/12 10:09:12;;;;;;;;;;;15.20;99.90;;;;;;5011270;28;19917;-68
2023/06/12 10:11:39;;;;;;;;;;;15.20;99.90;;;;;;5011883;28;20317;-68
2023/06/12 10:14:06;;;;;;;;;;;15.20;99.90;;;;;;5012063;28;19963;-67
2023/06/12 10:16:34;;;;;;;;;;;15.20;99.90;;;;;;5008600;28;19983;-68
2023/06/12 10:19:01;;;;;;;;;;;15.20;99.90;;;;;;5010295;28;20377;-68
2023/06/12 10:21:28;;;;;;;;;;;15.20;99.90;;;;;;5013512;28;19921;-69
2023/06/12 10:23:55;;;;;;;;;;;15.20;99.90;;;;;;5014765;28;20281;-69
2023/06/12 10:26:22;;;;;;;;;;;15.20;99.90;;;;;;5014796;28;19909;-69
2023/06/12 10:28:49;;;;;;;;;;;15.20;99.90;;;;;;5015280;28;19909;-66
2023/06/12 10:31:19;;;;;;;;;;;15.30;99.90;;;;;;5015244;28;19972;-69
2023/06/12 10:33:59;;;;;;;;;;;15.30;99.90;;;;;;5014988;28;20349;-65
2023/06/12 10:36:25;;;;;;;;;;;15.30;99.90;;;;;;5014836;28;19909;-69
2023/06/12 10:39:03;;;;;;;;;;;15.30;99.90;;;;;;5014322;28;19914;-68
2023/06/12 10:41:33;;;;;;;;;;;15.30;99.90;;;;;;5014136;28;20359;-66
2023/06/12 10:44:02;;;;;;;;;;;15.30;99.90;;;;;;5029946;28;19913;-69
2023/06/12 10:46:49;;;;;;;;;;;15.30;99.90;;;;;;5014545;28;19924;-68
2023/06/12 10:49:17;;;;;;;;;;;15.20;99.90;;;;;;5012791;28;19925;-70
2023/06/12 10:51:50;;;;;;;;;;;15.30;99.90;;;;;;5014376;28;20406;-65
2023/06/12 10:54:24;;;;;;;;;;;15.20;99.90;;;;;;5014600;28;19913;-71
2023/06/12 10:56:58;;;;;;;;;;;15.20;99.90;;;;;;5014794;28;19980;-67
2023/06/12 10:59:34;;;;;;;;;;;15.20;99.90;;;;;;5014161;28;20371;-67
2023/06/12 11:02:04;;;;;;;;;;;15.10;99.90;;;;;;5014414;28;19949;-67
2023/06/12 11:04:40;;;;;;;;;;;15.20;99.90;;;;;;5014347;28;20291;-69
2023/06/12 11:07:07;;;;;;;;;;;15.10;99.90;;;;;;5014588;28;20264;-68
2023/06/12 11:09:43;;;;;;;;;;;15.10;99.90;;;;;;5014228;28;19910;-67
2023/06/12 11:12:10;;;;;;;;;;;15.10;99.90;;;;;;5014089;28;19916;-64
2023/06/12 11:14:36;;;;;;;;;;;15.10;99.90;;;;;;5014073;28;20526;-67
2023/06/12 11:17:03;;;;;;;;;;;15.00;99.90;;;;;;5014338;28;19910;-67
2023/06/12 11:19:30;;;;;;;;;;;15.00;99.90;;;;;;5014017;28;19909;-70
2023/06/12 11:21:57;;;;;;;;;;;15.00;99.90;;;;;;5013622;28;19949;-67
2023/06/12 11:24:26;;;;;;;;;;;15.00;99.90;;;;;;5014046;28;19918;-67
2023/06/12 11:26:53;;;;;;;;;;;15.00;99.90;;;;;;5014017;28;19955;-67
2023/06/12 11:29:25;;;;;;;;;;;15.00;99.90;;;;;;5013528;28;20302;-66
2023/06/12 11:32:02;;;;;;;;;;;14.90;99.90;;;;;;5012831;28;20370;-69
2023/06/12 11:34:35;;;;;;;;;;;14.90;99.90;;;;;;5014049;28;19940;-68
2023/06/12 11:37:15;;;;;;;;;;;14.90;99.90;;;;;;5013447;28;19949;-65
2023/06/12 11:39:44;;;;;;;;;;;14.80;99.90;;;;;;5013810;28;19909;-61
2023/06/12 11:42:11;;;;;;;;;;;14.80;99.90;;;;;;5013870;28;19976;-67
2023/06/12 11:44:38;;;;;;;;;;;14.80;99.90;;;;;;5013902;28;19913;-67
2023/06/12 11:47:08;;;;;;;;;;;14.80;99.90;;;;;;5013302;28;20369;-69
2023/06/12 11:49:35;;;;;;;;;;;14.80;99.90;;;;;;5012948;28;20275;-67
2023/06/12 11:52:02;;;;;;;;;;;14.80;99.90;;;;;;5013408;28;19983;-68
2023/06/12 11:54:30;;;;;;;;;;;14.70;99.90;;;;;;5013959;28;19914;-67
2023/06/12 11:56:56;;;;;;;;;;;14.80;99.90;;;;;;5013353;28;19913;-65
2023/06/12 11:59:29;;;;;;;;;;;14.70;99.90;;;;;;5013655;28;20351;-63
2023/06/12 12:01:58;;;;;;;;;;;14.80;99.90;;;;;;5013815;28;19916;-69
2023/06/12 12:04:26;;;;;;;;;;;14.70;99.90;;;;;;5013923;28;19924;-63
2023/06/12 12:06:53;;;;;;;;;;;14.70;99.90;;;;;;5013082;28;20067;-66
2023/06/12 12:09:24;;;;;;;;;;;14.80;99.90;;;;;;5010524;28;20054;-64
2023/06/12 12:11:51;;;;;;;;;;;14.70;99.90;;;;;;5012969;28;19920;-63
2023/06/12 12:14:18;;;;;;;;;;;14.70;99.90;;;;;;5013579;28;19909;-64
2023/06/12 12:16:44;;;;;;;;;;;14.70;99.90;;;;;;5012994;28;19913;-69
2023/06/12 12:19:26;;;;;;;;;;;14.70;99.90;;;;;;5013345;28;19913;-70
2023/06/12 12:21:53;;;;;;;;;;;14.70;99.90;;;;;;5013039;28;19956;-68
2023/06/12 12:24:21;;;;;;;;;;;14.70;99.90;;;;;;5013287;28;20370;-68
2023/06/12 12:26:52;;;;;;;;;;;14.70;99.90;;;;;;4995574;28;19917;-68
2023/06/12 12:29:19;;;;;;;;;;;14.70;99.90;;;;;;5013520;28;19963;-64
2023/06/12 12:31:46;;;;;;;;;;;14.70;99.90;;;;;;5012642;28;19919;-66
2023/06/12 12:34:13;;;;;;;;;;;14.70;99.90;;;;;;5012810;28;20370;-68
2023/06/12 12:36:40;;;;;;;;;;;14.70;99.90;;;;;;5012510;28;19931;-69
2023/06/12 12:39:07;;;;;;;;;;;14.70;99.90;;;;;;5012576;28;19960;-68
2023/06/12 12:41:35;;;;;;;;;;;14.80;99.90;;;;;;5012239;28;19960;-69
2023/06/12 12:44:02;;;;;;;;;;;14.70;99.90;;;;;;5012958;28;19948;-68
2023/06/12 12:46:29;;;;;;;;;;;14.60;99.90;;;;;;5012894;28;20325;-68
2023/06/12 12:48:55;;;;;;;;;;;14.60;99.90;;;;;;5012800;28;19921;-70
2023/06/12 12:51:22;;;;;;;;;;;14.60;99.90;;;;;;5012583;28;20255;-69
2023/06/12 12:53:49;;;;;;;;;;;14.60;99.90;;;;;;5013046;28;19931;-66
2023/06/12 12:56:16;;;;;;;;;;;14.60;99.90;;;;;;5012484;28;20377;-66
2023/06/12 12:58:42;;;;;;;;;;;14.60;99.90;;;;;;5027428;28;20282;-63
2023/06/12 13:01:09;;;;;;;;;;;14.70;99.90;;;;;;5012713;28;20317;-69
2023/06/12 13:03:38;;;;;;;;;;;14.60;99.90;;;;;;5012655;28;19936;-62
2023/06/12 13:06:06;;;;;;;;;;;14.60;99.90;;;;;;5012667;28;20466;-67
2023/06/12 13:08:36;;;;;;;;;;;14.60;99.90;;;;;;5012310;28;19916;-65
2023/06/12 13:11:02;;;;;;;;;;;14.50;99.90;;;;;;5012105;28;19910;-63
2023/06/12 13:13:29;;;;;;;;;;;14.60;99.90;;;;;;5012132;28;19920;-64
2023/06/12 13:15:56;;;;;;;;;;;14.50;99.90;;;;;;5012370;28;19918;-64
2023/06/12 13:18:22;;;;;;;;;;;14.50;99.90;;;;;;5012286;28;19914;-63
2023/06/12 13:20:49;;;;;;;;;;;14.50;99.90;;;;;;5012722;28;20341;-63
2023/06/12 13:23:16;;;;;;;;;;;14.50;99.90;;;;;;5011958;28;19916;-66
2023/06/12 13:25:42;;;;;;;;;;;14.50;99.90;;;;;;5012139;28;20032;-64
2023/06/12 13:28:09;;;;;;;;;;;14.50;99.90;;;;;;5012483;28;19921;-65
2023/06/12 13:30:36;;;;;;;;;;;14.50;99.90;;;;;;5012358;28;19910;-64
2023/06/12 13:33:03;;;;;;;;;;;14.50;99.90;;;;;;5012126;28;19917;-65
2023/06/12 13:35:29;;;;;;;;;;;14.40;99.90;;;;;;5012285;28;19910;-65
2023/06/12 13:37:56;;;;;;;;;;;14.50;99.90;;;;;;5011882;28;19920;-66
2023/06/12 13:40:23;;;;;;;;;;;14.50;99.90;;;;;;5012328;28;19917;-64
2023/06/12 13:42:50;;;;;;;;;;;14.40;99.90;;;;;;5012118;28;19910;-66
2023/06/12 13:45:17;;;;;;;;;;;14.40;99.90;;;;;;5012281;28;19918;-64
2023/06/12 13:47:45;;;;;;;;;;;14.40;99.90;;;;;;5012037;28;19926;-64
2023/06/12 13:50:12;;;;;;;;;;;14.40;99.90;;;;;;5011767;28;19967;-65
2023/06/12 13:52:39;;;;;;;;;;;14.40;99.90;;;;;;5011964;28;19960;-67
2023/06/12 13:55:07;;;;;;;;;;;14.30;99.90;;;;;;5014971;28;19953;-64
2023/06/12 13:57:33;;;;;;;;;;;14.30;99.90;;;;;;5015671;28;19913;-67
2023/06/12 14:00:00;;;;;;;;;;;14.20;99.90;;;;;;5015896;28;19925;-65
2023/06/12 14:02:27;;;;;;;;;;;14.20;99.90;;;;;;5015811;28;20405;-66
2023/06/12 14:04:53;;;;;;;;;;;14.20;99.90;;;;;;5015929;28;19922;-69
2023/06/12 14:07:20;;;;;;;;;;;14.20;99.90;;;;;;5015758;28;20413;-67
2023/06/12 14:09:47;;;;;;;;;;;14.20;99.90;;;;;;5015408;28;19910;-65
2023/06/12 14:12:13;;;;;;;;;;;14.20;99.90;;;;;;5015625;28;19913;-68
2023/06/12 14:14:45;;;;;;;;;;;14.20;99.90;;;;;;5015474;28;19916;-64
2023/06/12 14:17:12;;;;;;;;;;;14.10;99.90;;;;;;5015523;28;20355;-63
2023/06/12 14:19:38;;;;;;;;;;;14.00;99.90;;;;;;5015618;28;19909;-64